Time;durP1;ratioP1;P1;durP2;ratioP2;P2;SDS_P1;SDS_P2;PMS_P1;PMS_P2;Temp;Humidity;BMP_temperature;BMP_pressure;BME280_temperature;BME280_humidity;BME280_pressure;Samples;Min_cycle;Max_cycle;Signal;HPM_P1;HPM_P2
2022/03/30 00:01:06;;;;;;;72.70;34.40;;;;;;;3.27;68.78;99335.70;106193;1270;22540;-58
2022/03/30 00:03:38;;;;;;;74.80;34.90;;;;;;;3.24;68.87;99332.83;105882;1269;385031;-55
2022/03/30 00:06:10;;;;;;;81.00;36.80;;;;;;;3.24;69.00;99334.70;106069;1270;27902;-57
2022/03/30 00:08:42;;;;;;;74.70;35.50;;;;;;;3.22;69.21;99335.17;106108;1270;24256;-56
2022/03/30 00:11:14;;;;;;;70.00;34.20;;;;;;;3.21;69.35;99335.78;106082;1270;22555;-56
2022/03/30 00:13:46;;;;;;;74.80;35.80;;;;;;;3.20;69.21;99335.17;106103;1268;22538;-57
2022/03/30 00:16:18;;;;;;;76.50;35.30;;;;;;;3.18;69.00;99336.97;106218;1269;22534;-58
2022/03/30 00:18:49;;;;;;;70.80;32.90;;;;;;;3.18;69.06;99336.48;106137;1270;24259;-56
2022/03/30 00:21:22;;;;;;;73.30;33.70;;;;;;;3.16;68.90;99332.39;106072;1268;22614;-55
2022/03/30 00:23:54;;;;;;;70.80;34.50;;;;;;;3.15;69.19;99326.62;106035;1269;22618;-59
2022/03/30 00:26:25;;;;;;;76.40;34.50;;;;;;;3.13;69.19;99328.26;106049;1269;22550;-58
2022/03/30 00:28:56;;;;;;;73.20;35.00;;;;;;;3.12;69.03;99328.37;106091;1270;22573;-58
2022/03/30 00:31:28;;;;;;;78.50;35.90;;;;;;;3.09;69.14;99327.63;106077;1269;22544;-57
2022/03/30 00:33:59;;;;;;;75.00;34.20;;;;;;;3.08;69.03;99328.77;106062;1270;22544;-59
2022/03/30 00:36:33;;;;;;;74.80;34.00;;;;;;;3.06;69.06;99328.07;106021;1269;22615;-58
2022/03/30 00:39:04;;;;;;;78.90;35.20;;;;;;;3.05;69.21;99325.52;105941;1269;23605;-56
2022/03/30 00:41:36;;;;;;;70.60;33.80;;;;;;;3.03;69.19;99331.10;106079;1269;22554;-56
2022/03/30 00:44:14;;;;;;;76.80;34.70;;;;;;;3.02;69.30;99330.19;106092;1270;22528;-58
2022/03/30 00:46:45;;;;;;;74.30;34.50;;;;;;;3.01;69.39;99332.05;106125;1270;22542;-59
2022/03/30 00:49:16;;;;;;;74.40;34.80;;;;;;;2.98;69.43;99327.95;106088;1268;22525;-57
2022/03/30 00:51:48;;;;;;;76.90;35.90;;;;;;;2.99;69.53;99329.13;106108;1269;25298;-55
2022/03/30 00:54:19;;;;;;;79.00;34.00;;;;;;;2.98;69.65;99327.01;106040;1270;24285;-56
2022/03/30 00:56:50;;;;;;;77.20;34.70;;;;;;;2.96;69.80;99327.39;105969;1269;25315;-56
2022/03/30 00:59:22;;;;;;;73.40;32.90;;;;;;;2.94;70.02;99322.98;106134;1269;24265;-55
2022/03/30 01:01:54;;;;;;;74.10;36.00;;;;;;;2.92;69.99;99318.72;106046;1269;24289;-60
2022/03/30 01:04:27;;;;;;;75.70;34.20;;;;;;;2.90;69.85;99315.43;106379;1270;25301;-56
2022/03/30 01:06:58;;;;;;;75.90;37.10;;;;;;;2.86;69.88;99314.48;105934;1269;25424;-59
2022/03/30 01:09:30;;;;;;;74.10;35.00;;;;;;;2.81;70.01;99314.88;106113;1269;24214;-57
2022/03/30 01:12:02;;;;;;;76.10;34.50;;;;;;;2.80;69.84;99308.16;106078;1269;25354;-59
2022/03/30 01:14:33;;;;;;;77.90;34.50;;;;;;;2.78;69.66;99310.20;106084;1269;22533;-57
2022/03/30 01:17:06;;;;;;;77.70;33.20;;;;;;;2.78;69.48;99306.65;106046;1270;24442;-57
2022/03/30 01:19:38;;;;;;;76.40;33.30;;;;;;;2.79;69.04;99304.09;106173;1269;24468;-57
2022/03/30 01:22:10;;;;;;;68.30;31.80;;;;;;;2.80;69.17;99301.85;105987;1270;22544;-57
2022/03/30 01:24:43;;;;;;;69.00;34.50;;;;;;;2.78;69.08;99300.59;106025;1269;22582;-59
2022/03/30 01:27:15;;;;;;;68.60;32.40;;;;;;;2.75;68.98;99294.93;105996;1270;25590;-57
2022/03/30 01:32:36;;;;;;;70.10;32.30;;;;;;;2.71;68.78;99290.30;105956;1268;22538;-56
2022/03/30 01:35:11;;;;;;;71.70;32.80;;;;;;;2.68;68.91;99294.17;105994;1270;24328;-56
2022/03/30 01:37:43;;;;;;;71.90;34.30;;;;;;;2.64;69.04;99294.63;105957;1271;22887;-59
2022/03/30 01:40:15;;;;;;;74.00;32.10;;;;;;;2.59;69.03;99289.15;106037;1269;22797;-59
2022/03/30 01:42:47;;;;;;;68.00;30.90;;;;;;;2.54;69.04;99288.77;105957;1269;25347;-58
2022/03/30 01:45:18;;;;;;;70.80;32.00;;;;;;;2.50;68.88;99287.89;106051;1270;24408;-54
2022/03/30 01:47:57;;;;;;;71.30;31.20;;;;;;;2.49;68.78;99286.20;105977;1269;25033;-59
2022/03/30 01:50:31;;;;;;;66.30;30.50;;;;;;;2.46;68.77;99281.80;106249;1269;22527;-58
2022/03/30 01:53:03;;;;;;;67.10;31.50;;;;;;;2.43;68.67;99280.48;105977;1270;24375;-59
2022/03/30 01:55:34;;;;;;;67.10;30.80;;;;;;;2.41;68.76;99274.98;106009;1269;24005;-59
2022/03/30 01:58:06;;;;;;;63.20;30.20;;;;;;;2.39;68.59;99271.74;106099;1270;24217;-53
2022/03/30 02:00:38;;;;;;;70.80;31.40;;;;;;;2.39;68.56;99272.70;106014;1270;22639;-56
2022/03/30 02:03:11;;;;;;;69.10;31.20;;;;;;;2.38;68.36;99267.67;106139;1270;23339;-57
2022/03/30 02:05:42;;;;;;;67.20;32.00;;;;;;;2.37;68.37;99261.34;106154;1270;22534;-55
2022/03/30 02:08:14;;;;;;;70.20;33.00;;;;;;;2.36;68.32;99261.80;106133;1269;24220;-57
2022/03/30 02:10:46;;;;;;;73.00;31.20;;;;;;;2.34;68.34;99264.45;106135;1269;22535;-54
2022/03/30 02:13:18;;;;;;;71.30;32.20;;;;;;;2.33;68.33;99262.05;106013;1269;25414;-57
2022/03/30 02:15:50;;;;;;;74.70;31.90;;;;;;;2.31;68.40;99262.34;106106;1270;22547;-59
2022/03/30 02:18:21;;;;;;;67.20;32.10;;;;;;;2.29;68.29;99263.27;106224;1268;22547;-59
2022/03/30 02:20:54;;;;;;;78.50;33.60;;;;;;;2.28;68.30;99262.77;106126;1269;24286;-57
2022/03/30 02:23:26;;;;;;;66.20;32.00;;;;;;;2.27;68.37;99260.23;106176;1270;25252;-56
2022/03/30 02:25:58;;;;;;;74.00;35.40;;;;;;;2.25;68.34;99265.72;106016;1270;25437;-58
2022/03/30 02:28:30;;;;;;;71.60;34.00;;;;;;;2.23;68.31;99259.83;106065;1269;25354;-57
2022/03/30 02:31:03;;;;;;;71.30;34.50;;;;;;;2.20;68.32;99258.11;106042;1268;23010;-57
2022/03/30 02:33:34;;;;;;;83.00;36.80;;;;;;;2.16;68.39;99259.41;105968;1270;22472;-54
2022/03/30 02:36:06;;;;;;;83.30;37.70;;;;;;;2.10;68.58;99254.02;105996;1270;22551;-58
2022/03/30 02:38:38;;;;;;;77.90;37.00;;;;;;;2.00;68.71;99251.70;105997;1270;26033;-57
2022/03/30 02:41:11;;;;;;;83.20;36.90;;;;;;;1.93;68.57;99251.17;106269;1269;24220;-60
2022/03/30 02:43:43;;;;;;;78.70;37.70;;;;;;;1.89;68.48;99245.90;106379;1270;26889;-57
2022/03/30 02:46:16;;;;;;;77.50;34.30;;;;;;;1.86;68.47;99248.75;106268;1270;26909;-56
2022/03/30 02:48:47;;;;;;;81.20;36.20;;;;;;;1.81;68.42;99249.12;106180;1270;22538;-57
2022/03/30 02:51:18;;;;;;;75.50;35.10;;;;;;;1.79;68.30;99247.23;106047;1270;24401;-56
2022/03/30 02:53:51;;;;;;;74.70;33.90;;;;;;;1.77;68.25;99243.70;106067;1270;25526;-58
2022/03/30 02:56:23;;;;;;;75.70;33.90;;;;;;;1.76;68.23;99251.52;106071;1269;25309;-56
2022/03/30 02:58:54;;;;;;;76.40;34.60;;;;;;;1.75;68.07;99243.77;106572;1259;22541;-56
2022/03/30 03:01:25;;;;;;;68.80;32.90;;;;;;;1.73;68.16;99249.58;106746;1268;25337;-57
2022/03/30 03:03:57;;;;;;;67.70;30.70;;;;;;;1.70;68.08;99248.95;106405;1270;22531;-56
2022/03/30 03:06:28;;;;;;;74.40;34.40;;;;;;;1.68;68.28;99250.36;106305;1269;24252;-57
2022/03/30 03:09:00;;;;;;;74.20;32.10;;;;;;;1.65;68.07;99246.05;106194;1270;24133;-56
2022/03/30 03:11:32;;;;;;;71.40;32.50;;;;;;;1.62;68.14;99253.77;106489;1270;24334;-57
2022/03/30 03:14:05;;;;;;;75.10;34.00;;;;;;;1.60;68.14;99253.52;106329;1270;24808;-57
2022/03/30 03:16:36;;;;;;;73.90;34.90;;;;;;;1.57;68.20;99255.97;106180;1269;24320;-57
2022/03/30 03:19:07;;;;;;;74.70;33.40;;;;;;;1.55;68.10;99252.27;108443;1269;25671;-58
2022/03/30 03:21:39;;;;;;;72.20;31.30;;;;;;;1.52;68.42;99252.04;106319;1270;22548;-55
2022/03/30 03:24:11;;;;;;;75.30;33.90;;;;;;;1.49;68.29;99251.42;106504;1271;22588;-59
2022/03/30 03:26:42;;;;;;;72.30;32.80;;;;;;;1.47;68.19;99248.98;106309;1269;22688;-57
2022/03/30 03:29:14;;;;;;;68.30;31.70;;;;;;;1.45;68.25;99243.70;106375;1270;25376;-58
2022/03/30 03:31:46;;;;;;;71.70;33.20;;;;;;;1.43;68.18;99240.21;106173;1270;22604;-60
2022/03/30 03:34:17;;;;;;;75.70;32.70;;;;;;;1.41;68.41;99236.14;106083;1270;25385;-57
2022/03/30 03:36:49;;;;;;;68.10;31.80;;;;;;;1.38;68.36;99229.81;106323;1270;22629;-58
2022/03/30 03:39:20;;;;;;;72.90;34.70;;;;;;;1.34;68.48;99229.27;106404;1270;22552;-58
2022/03/30 03:41:52;;;;;;;71.40;34.80;;;;;;;1.30;68.79;99224.64;106317;1270;22534;-62
2022/03/30 03:44:23;;;;;;;77.70;35.40;;;;;;;1.23;68.68;99221.32;106179;1273;22477;-58
2022/03/30 03:46:55;;;;;;;75.90;33.00;;;;;;;1.18;68.93;99225.95;106275;1270;22550;-58
2022/03/30 03:49:26;;;;;;;76.70;35.90;;;;;;;1.14;69.04;99233.70;106239;1269;22528;-57
2022/03/30 03:51:58;;;;;;;73.20;33.30;;;;;;;1.09;68.95;99234.26;106262;1269;24268;-57
2022/03/30 03:54:30;;;;;;;78.40;33.70;;;;;;;1.02;68.98;99233.06;106255;1270;24290;-57
2022/03/30 03:57:02;;;;;;;76.90;34.30;;;;;;;0.97;68.97;99231.23;106206;1270;22544;-59
2022/03/30 03:59:33;;;;;;;83.00;33.60;;;;;;;0.92;69.20;99229.73;106234;1270;22754;-58
2022/03/30 04:02:07;;;;;;;75.20;35.30;;;;;;;0.86;69.53;99230.33;106165;1270;25445;-57
2022/03/30 04:04:39;;;;;;;79.90;34.20;;;;;;;0.80;69.29;99230.16;106342;1270;25502;-57
2022/03/30 04:07:11;;;;;;;73.80;35.50;;;;;;;0.76;69.26;99226.90;106297;1270;22525;-58
2022/03/30 04:09:42;;;;;;;82.20;35.20;;;;;;;0.76;69.08;99226.05;106351;1270;22566;-59
2022/03/30 04:12:14;;;;;;;81.10;33.10;;;;;;;0.75;69.02;99225.70;106375;1270;25573;-59
2022/03/30 04:14:45;;;;;;;83.00;32.60;;;;;;;0.74;68.89;99225.58;106375;1270;22554;-57
2022/03/30 04:17:17;;;;;;;80.20;34.10;;;;;;;0.73;68.92;99224.88;106374;1270;22993;-57
2022/03/30 04:19:49;;;;;;;69.80;32.70;;;;;;;0.71;68.92;99225.33;106477;1271;25535;-58
2022/03/30 04:22:20;;;;;;;70.40;32.10;;;;;;;0.69;68.82;99220.91;106488;1271;22601;-56
2022/03/30 04:24:52;;;;;;;72.50;31.40;;;;;;;0.68;68.74;99225.75;106458;1270;25569;-58
2022/03/30 04:27:24;;;;;;;74.90;31.30;;;;;;;0.66;68.81;99226.11;106314;1271;22502;-54
2022/03/30 04:29:56;;;;;;;77.20;33.70;;;;;;;0.62;68.70;99226.79;106451;1271;22719;-56
2022/03/30 04:32:27;;;;;;;72.70;32.40;;;;;;;0.60;68.71;99229.76;106602;1269;24534;-54
2022/03/30 04:34:59;;;;;;;72.40;30.10;;;;;;;0.59;68.67;99232.05;106311;1268;22682;-58
2022/03/30 04:37:30;;;;;;;76.90;31.60;;;;;;;0.59;68.60;99236.59;106511;1270;22704;-57
2022/03/30 04:40:03;;;;;;;71.70;31.00;;;;;;;0.59;68.73;99240.13;106480;1270;25518;-56
2022/03/30 04:42:35;;;;;;;68.00;30.20;;;;;;;0.59;68.55;99242.48;106065;1269;24329;-55
2022/03/30 04:45:08;;;;;;;70.10;31.40;;;;;;;0.58;68.70;99240.68;106073;1270;22735;-56
2022/03/30 04:47:40;;;;;;;74.40;32.50;;;;;;;0.59;68.74;99240.52;106146;1269;24232;-57
2022/03/30 04:50:13;;;;;;;81.90;35.70;;;;;;;0.57;68.93;99239.86;106140;1269;22613;-54
2022/03/30 04:52:44;;;;;;;88.10;35.90;;;;;;;0.54;68.92;99240.41;106181;1270;22558;-57
2022/03/30 04:55:16;;;;;;;74.90;33.00;;;;;;;0.54;68.91;99236.11;106074;1269;25719;-59
2022/03/30 04:57:48;;;;;;;80.40;35.20;;;;;;;0.55;68.73;99233.34;106226;1271;22607;-60
2022/03/30 05:00:21;;;;;;;80.70;37.30;;;;;;;0.56;69.08;99233.45;105979;1271;25431;-56
2022/03/30 05:02:52;;;;;;;80.30;37.00;;;;;;;0.57;68.98;99234.45;106264;1270;27170;-56
2022/03/30 05:05:24;;;;;;;80.80;35.00;;;;;;;0.56;69.15;99236.59;106139;1269;24416;-53
2022/03/30 05:07:56;;;;;;;90.90;42.00;;;;;;;0.56;69.31;99235.35;105917;1269;22555;-54
2022/03/30 05:10:28;;;;;;;87.30;39.00;;;;;;;0.56;69.69;99239.73;106012;1268;24441;-57
2022/03/30 05:13:04;;;;;;;88.60;37.60;;;;;;;0.54;70.01;99243.73;106566;1268;22707;-57
2022/03/30 05:15:35;;;;;;;86.50;38.00;;;;;;;0.53;70.11;99243.20;106334;1268;24238;-57
2022/03/30 05:18:19;;;;;;;91.20;38.50;;;;;;;0.52;70.34;99241.90;106312;1268;23161;-57
2022/03/30 05:20:53;;;;;;;86.30;40.30;;;;;;;0.53;70.42;99249.70;106377;1268;26148;-56
2022/03/30 05:23:36;;;;;;;93.90;38.30;;;;;;;0.55;70.57;99246.67;106159;1269;23151;-59
2022/03/30 05:26:15;;;;;;;90.70;39.80;;;;;;;0.59;70.57;99247.35;106045;1270;22489;-57
2022/03/30 05:28:46;;;;;;;90.90;38.20;;;;;;;0.61;70.82;99247.93;106141;1269;25530;-55
2022/03/30 05:31:18;;;;;;;90.20;39.10;;;;;;;0.64;70.96;99244.83;107532;1270;22611;-57
2022/03/30 05:33:50;;;;;;;90.20;41.00;;;;;;;0.70;70.91;99244.21;105877;1270;25072;-58
2022/03/30 05:36:21;;;;;;;90.60;37.90;;;;;;;0.75;71.04;99247.83;106240;1270;25962;-58
2022/03/30 05:38:53;;;;;;;90.40;41.00;;;;;;;0.81;71.15;99250.33;106628;1268;22640;-56
2022/03/30 05:41:24;;;;;;;93.60;38.00;;;;;;;0.86;71.41;99249.92;106452;1268;25437;-54
2022/03/30 05:43:57;;;;;;;95.20;39.70;;;;;;;0.90;71.41;99256.48;106320;1268;22708;-56
2022/03/30 05:46:28;;;;;;;89.20;39.50;;;;;;;0.96;71.35;99252.77;106401;1268;23875;-56
2022/03/30 05:49:00;;;;;;;82.90;38.10;;;;;;;1.02;71.62;99251.83;106456;1269;24271;-57
2022/03/30 05:51:31;;;;;;;97.80;41.80;;;;;;;1.08;71.84;99252.89;106302;1270;24232;-60
2022/03/30 05:54:05;;;;;;;88.40;40.60;;;;;;;1.14;72.07;99250.99;106585;1270;25970;-57
2022/03/30 05:59:29;;;;;;;92.20;39.80;;;;;;;1.25;72.38;99253.37;105884;1268;22550;-56
2022/03/30 06:02:01;;;;;;;100.40;42.10;;;;;;;1.32;72.62;99252.48;106159;1267;22544;-57
2022/03/30 06:04:34;;;;;;;115.80;45.60;;;;;;;1.39;72.86;99252.46;106381;1270;24149;-54
2022/03/30 06:07:06;;;;;;;97.90;44.00;;;;;;;1.46;73.00;99247.86;106436;1270;25255;-57
2022/03/30 06:09:38;;;;;;;104.50;46.30;;;;;;;1.50;73.21;99251.46;106572;1270;22544;-57
2022/03/30 06:12:11;;;;;;;105.80;44.60;;;;;;;1.55;73.46;99251.55;106743;1270;24280;-57
2022/03/30 06:14:42;;;;;;;105.10;45.90;;;;;;;1.63;73.69;99252.30;106454;1270;22733;-57
2022/03/30 06:17:17;;;;;;;100.70;45.30;;;;;;;1.71;73.73;99248.29;106287;1270;22543;-58
2022/03/30 06:19:51;;;;;;;114.10;47.90;;;;;;;1.79;73.89;99251.48;108309;1267;24242;-55
2022/03/30 06:22:27;;;;;;;100.20;45.80;;;;;;;1.85;74.05;99249.78;106450;1267;25332;-54
2022/03/30 06:24:59;;;;;;;104.40;45.40;;;;;;;1.91;74.12;99248.86;106256;1270;25372;-57
2022/03/30 06:27:32;;;;;;;99.50;45.10;;;;;;;2.00;74.42;99252.91;106295;1271;23582;-56
2022/03/30 06:30:06;;;;;;;106.10;46.00;;;;;;;2.05;74.53;99251.13;106420;1268;25431;-59
2022/03/30 06:32:38;;;;;;;112.20;47.40;;;;;;;2.10;74.48;99253.00;106275;1271;22819;-58
2022/03/30 06:35:12;;;;;;;103.20;46.30;;;;;;;2.16;74.53;99254.16;106542;1270;23364;-60
2022/03/30 06:37:44;;;;;;;105.90;46.50;;;;;;;2.22;74.75;99251.65;106586;1271;25068;-56
2022/03/30 06:40:18;;;;;;;117.90;48.30;;;;;;;2.29;74.79;99248.59;106471;1267;22613;-57
2022/03/30 06:42:53;;;;;;;109.60;51.70;;;;;;;2.35;74.99;99248.60;106435;1271;22544;-56
2022/03/30 06:45:25;;;;;;;97.60;49.00;;;;;;;2.43;75.10;99254.78;106437;1267;25379;-56
2022/03/30 06:47:57;;;;;;;102.80;47.30;;;;;;;2.50;75.36;99252.08;106514;1267;24303;-58
2022/03/30 06:50:32;;;;;;;108.20;50.80;;;;;;;2.58;75.41;99251.94;106743;1268;25431;-59
2022/03/30 06:53:05;;;;;;;100.30;46.20;;;;;;;2.68;75.76;99247.25;106460;1268;22541;-57
2022/03/30 06:55:38;;;;;;;103.80;50.00;;;;;;;2.78;76.09;99248.29;106447;1268;22663;-57
2022/03/30 06:58:11;;;;;;;108.80;49.70;;;;;;;2.88;76.12;99244.93;106572;1267;22611;-56
2022/03/30 07:00:43;;;;;;;99.30;47.20;;;;;;;2.99;76.24;99248.59;106570;1267;22606;-57
2022/03/30 07:03:15;;;;;;;107.10;48.90;;;;;;;3.11;76.29;99247.58;106528;1268;25403;-55
2022/03/30 07:05:47;;;;;;;99.90;46.00;;;;;;;3.24;76.19;99246.61;106500;1270;22530;-59
2022/03/30 07:11:08;;;;;;;95.10;43.90;;;;;;;3.51;76.37;99248.47;106492;1268;22528;-56
2022/03/30 07:13:40;;;;;;;92.30;40.90;;;;;;;3.63;76.10;99250.48;106421;1271;22560;-55
2022/03/30 07:16:12;;;;;;;87.50;41.20;;;;;;;3.74;75.98;99255.93;106572;1268;22668;-56
2022/03/30 07:18:44;;;;;;;80.50;38.00;;;;;;;3.85;75.86;99252.64;106551;1271;25432;-57
2022/03/30 07:21:18;;;;;;;79.60;36.50;;;;;;;3.97;75.89;99251.38;106527;1268;24343;-54
2022/03/30 07:23:52;;;;;;;83.50;37.70;;;;;;;4.08;75.51;99251.91;106513;1268;24407;-56
2022/03/30 07:26:25;;;;;;;82.70;35.80;;;;;;;4.19;75.21;99250.68;106524;1268;22549;-55
2022/03/30 07:28:57;;;;;;;81.40;35.80;;;;;;;4.30;75.12;99246.36;106258;1271;25718;-56
2022/03/30 07:31:28;;;;;;;72.30;31.70;;;;;;;4.41;75.00;99252.80;106400;1271;24359;-56
2022/03/30 07:34:00;;;;;;;74.90;32.50;;;;;;;4.53;74.97;99248.88;106524;1268;22679;-58
2022/03/30 07:36:32;;;;;;;75.30;33.60;;;;;;;4.66;74.95;99251.38;106573;1268;22641;-57
2022/03/30 07:39:04;;;;;;;64.40;29.60;;;;;;;4.78;74.70;99248.19;106401;1270;22503;-56
2022/03/30 07:41:36;;;;;;;68.50;31.10;;;;;;;4.91;74.69;99249.52;106399;1271;22503;-55
2022/03/30 07:44:08;;;;;;;65.60;30.70;;;;;;;5.04;74.42;99250.34;106507;1270;26820;-57
2022/03/30 07:46:39;;;;;;;64.60;29.80;;;;;;;5.14;74.24;99253.36;106494;1271;22808;-57
2022/03/30 07:49:11;;;;;;;64.70;27.50;;;;;;;5.24;73.80;99251.84;106473;1271;22575;-54
2022/03/30 07:51:43;;;;;;;64.10;25.80;;;;;;;5.34;73.51;99251.99;106588;1268;25257;-56
2022/03/30 07:54:14;;;;;;;63.40;27.10;;;;;;;5.42;73.26;99248.77;106531;1268;22525;-55
2022/03/30 07:56:47;;;;;;;58.40;25.80;;;;;;;5.52;73.12;99250.99;106501;1270;22766;-56
2022/03/30 07:59:18;;;;;;;53.90;25.90;;;;;;;5.61;72.91;99247.40;106571;1270;25663;-61
2022/03/30 08:01:51;;;;;;;54.30;24.80;;;;;;;5.71;72.90;99244.68;106323;1270;22577;-63
2022/03/30 08:04:23;;;;;;;60.00;27.20;;;;;;;5.81;72.64;99243.35;106089;1271;22748;-56
2022/03/30 08:06:54;;;;;;;65.40;29.00;;;;;;;5.91;72.61;99237.89;106378;1269;22698;-57
2022/03/30 08:09:26;;;;;;;63.70;26.10;;;;;;;6.00;72.19;99237.90;106412;1271;25297;-57
2022/03/30 08:11:58;;;;;;;61.40;26.70;;;;;;;6.05;71.83;99236.48;106331;1270;25377;-56
2022/03/30 08:14:29;;;;;;;50.20;22.50;;;;;;;6.11;71.72;99234.58;106465;1269;24292;-56
2022/03/30 08:17:03;;;;;;;58.80;25.70;;;;;;;6.21;71.73;99227.80;106311;1270;22554;-55
2022/03/30 08:19:34;;;;;;;47.10;20.10;;;;;;;6.31;71.30;99231.63;106593;1270;22717;-59
2022/03/30 08:24:56;;;;;;;56.60;23.20;;;;;;;6.44;70.72;99232.73;106316;1271;22741;-56
2022/03/30 08:27:30;;;;;;;55.30;24.60;;;;;;;6.49;70.52;99228.08;106541;1270;22549;-57
2022/03/30 08:30:04;;;;;;;54.40;25.80;;;;;;;6.55;70.55;99227.53;106602;1270;25857;-58
2022/03/30 08:32:35;;;;;;;53.00;24.60;;;;;;;6.62;70.35;99227.86;106523;1269;25214;-56
2022/03/30 08:35:11;;;;;;;53.20;25.10;;;;;;;6.67;70.05;99229.58;106535;1271;25261;-58
2022/03/30 08:37:42;;;;;;;61.40;25.40;;;;;;;6.72;70.02;99228.30;106425;1271;22718;-60
2022/03/30 08:40:14;;;;;;;50.70;21.40;;;;;;;6.79;69.45;99229.84;106351;1270;25970;-56
2022/03/30 08:42:48;;;;;;;62.70;25.60;;;;;;;6.85;69.15;99226.46;106531;1271;22542;-57
2022/03/30 08:45:19;;;;;;;52.50;20.90;;;;;;;6.96;68.85;99222.01;106366;1271;22637;-58
2022/03/30 08:47:52;;;;;;;45.70;19.80;;;;;;;7.02;68.58;99220.91;106362;1270;22564;-57
2022/03/30 08:50:23;;;;;;;46.30;19.00;;;;;;;7.07;67.94;99218.42;106493;1269;25301;-58
2022/03/30 08:52:56;;;;;;;52.20;21.40;;;;;;;7.15;68.20;99217.20;106481;1271;25041;-60
2022/03/30 08:55:27;;;;;;;44.60;19.00;;;;;;;7.25;67.72;99215.04;106344;1270;22573;-62
2022/03/30 08:58:00;;;;;;;48.70;20.70;;;;;;;7.36;67.47;99214.29;106456;1271;25850;-59
2022/03/30 09:00:34;;;;;;;47.20;18.50;;;;;;;7.47;67.49;99213.43;106749;1262;22528;-55
2022/03/30 09:03:07;;;;;;;38.00;16.80;;;;;;;7.58;67.34;99211.77;105994;1268;22563;-57
2022/03/30 09:05:40;;;;;;;40.40;17.00;;;;;;;7.68;66.84;99212.78;106151;1267;22736;-59
2022/03/30 09:08:15;;;;;;;46.40;18.50;;;;;;;7.75;66.59;99212.44;106267;1268;25381;-59
2022/03/30 09:10:48;;;;;;;43.30;17.00;;;;;;;7.84;66.12;99211.69;106128;1270;22525;-55
2022/03/30 09:13:20;;;;;;;36.30;15.50;;;;;;;7.92;65.70;99207.90;106178;1268;22535;-58
2022/03/30 09:15:53;;;;;;;44.50;16.50;;;;;;;7.97;65.09;99206.19;106037;1271;24212;-57
2022/03/30 09:18:25;;;;;;;37.30;15.80;;;;;;;8.01;65.61;99200.79;106025;1268;25304;-55
2022/03/30 09:20:58;;;;;;;41.10;16.60;;;;;;;8.08;65.48;99197.54;106210;1270;22688;-58
2022/03/30 09:23:32;;;;;;;37.60;17.40;;;;;;;8.14;64.92;99194.89;106171;1271;22547;-55
2022/03/30 09:26:04;;;;;;;37.80;15.00;;;;;;;8.17;64.66;99195.33;106197;1268;24472;-59
2022/03/30 09:28:37;;;;;;;37.00;15.20;;;;;;;8.23;64.44;99190.56;106221;1268;25851;-57
2022/03/30 09:31:09;;;;;;;35.70;13.80;;;;;;;8.28;63.77;99186.33;106225;1268;22531;-56
2022/03/30 09:33:43;;;;;;;41.00;16.20;;;;;;;8.33;63.50;99185.88;106141;1270;26624;-58
2022/03/30 09:36:30;;;;;;;34.20;14.60;;;;;;;8.42;63.50;99188.09;106202;1268;25513;-56
2022/03/30 09:39:02;;;;;;;39.10;16.10;;;;;;;8.48;62.76;99187.71;106339;1270;22596;-57
2022/03/30 09:44:47;;;;;;;39.20;14.70;;;;;;;8.59;63.32;99181.80;102446;1309;544891;-58
2022/03/30 09:47:20;;;;;;;38.50;15.60;;;;;;;8.65;63.32;99178.39;105391;1280;22699;-57
2022/03/30 09:49:53;;;;;;;34.20;13.00;;;;;;;8.74;63.13;99176.33;105600;1280;22579;-56
2022/03/30 09:52:26;;;;;;;41.10;16.30;;;;;;;8.83;62.71;99174.20;105477;1281;26555;-58
2022/03/30 09:55:01;;;;;;;38.70;15.20;;;;;;;8.92;62.35;99173.35;105525;1280;24306;-58
2022/03/30 09:57:42;;;;;;;34.00;13.80;;;;;;;9.00;62.12;99166.52;105405;1277;252789;-57
2022/03/30 10:00:17;;;;;;;32.00;14.10;;;;;;;9.04;61.77;99162.48;105555;1277;22537;-56
2022/03/30 10:02:51;;;;;;;35.30;14.10;;;;;;;9.10;61.25;99164.42;105507;1277;22580;-54
2022/03/30 10:05:25;;;;;;;39.50;13.80;;;;;;;9.12;61.02;99160.30;105454;1277;22700;-57
2022/03/30 10:07:59;;;;;;;31.50;12.30;;;;;;;9.15;60.60;99161.23;105376;1277;22598;-59
2022/03/30 10:10:31;;;;;;;32.80;13.30;;;;;;;9.22;60.36;99158.90;105460;1277;22574;-60
2022/03/30 10:13:02;;;;;;;36.90;14.30;;;;;;;9.21;60.13;99160.32;105619;1277;24437;-54
2022/03/30 10:15:34;;;;;;;35.90;13.30;;;;;;;9.20;60.08;99153.17;105650;1277;22550;-56
2022/03/30 10:18:07;;;;;;;33.00;13.20;;;;;;;9.27;60.59;99145.41;105508;1277;25235;-57
2022/03/30 10:20:39;;;;;;;35.10;13.10;;;;;;;9.43;60.79;99142.32;105894;1271;22723;-59
2022/03/30 10:23:27;;;;;;;35.70;13.10;;;;;;;9.58;59.84;99148.50;105966;1271;22613;-57
2022/03/30 10:26:08;;;;;;;34.10;13.10;;;;;;;9.66;58.54;99142.30;105980;1271;24217;-54
2022/03/30 10:28:56;;;;;;;35.50;13.10;;;;;;;9.69;58.42;99138.52;106099;1271;22548;-57
2022/03/30 10:31:30;;;;;;;32.70;13.20;;;;;;;9.69;58.41;99133.24;106018;1271;25239;-59
2022/03/30 10:34:28;;;;;;;32.50;13.40;;;;;;;9.73;58.58;99135.95;105992;1270;25238;-58
2022/03/30 10:37:09;;;;;;;34.40;12.70;;;;;;;9.84;58.09;99126.27;106105;1271;22522;-56
2022/03/30 10:40:10;;;;;;;29.90;11.00;;;;;;;9.90;57.53;99124.21;106338;1271;24167;-57
2022/03/30 10:43:09;;;;;;;35.50;12.60;;;;;;;9.96;57.26;99120.94;106612;1271;22543;-58
2022/03/30 10:45:48;;;;;;;36.60;13.20;;;;;;;10.00;56.50;99120.40;106313;1271;24268;-57
2022/03/30 10:48:23;;;;;;;36.00;13.80;;;;;;;9.98;56.63;99119.67;106123;1270;22699;-57
2022/03/30 10:50:56;;;;;;;33.00;13.50;;;;;;;9.96;56.18;99113.25;106033;1271;22550;-56
2022/03/30 10:53:47;;;;;;;30.10;12.30;;;;;;;9.99;57.08;99107.36;106113;1271;22794;-57
2022/03/30 10:56:37;;;;;;;30.40;11.60;;;;;;;10.11;56.95;99103.73;106145;1271;22544;-56
2022/03/30 10:59:16;;;;;;;40.00;13.50;;;;;;;10.24;56.68;99105.08;106006;1271;25248;-56
2022/03/30 11:01:50;;;;;;;38.00;13.00;;;;;;;10.36;56.36;99105.66;106059;1271;22587;-55
2022/03/30 11:04:26;;;;;;;35.50;13.10;;;;;;;10.47;56.11;99102.02;106168;1271;25237;-58
2022/03/30 11:07:40;;;;;;;29.30;12.60;;;;;;;10.52;55.53;99100.15;106112;1271;25247;-59
2022/03/30 11:10:27;;;;;;;27.70;11.70;;;;;;;10.53;54.86;99097.21;106030;1271;22721;-57
2022/03/30 11:13:02;;;;;;;38.60;12.30;;;;;;;10.53;54.88;99092.19;106059;1271;24303;-56
2022/03/30 11:16:16;;;;;;;34.50;13.40;;;;;;;10.53;54.04;99094.83;106230;1271;26475;-55
2022/03/30 11:19:00;;;;;;;31.20;12.40;;;;;;;10.48;54.18;99088.23;106019;1271;24217;-57
2022/03/30 11:21:32;;;;;;;31.40;12.60;;;;;;;10.50;54.51;99085.73;106203;1271;26726;-56
2022/03/30 11:24:13;;;;;;;32.70;12.10;;;;;;;10.56;54.44;99086.04;106095;1271;22588;-58
2022/03/30 11:27:19;;;;;;;31.00;11.80;;;;;;;10.65;54.13;99082.13;106379;1271;22695;-57
2022/03/30 11:29:57;;;;;;;29.50;11.80;;;;;;;10.73;53.90;99070.46;106048;1271;22560;-58
2022/03/30 11:33:08;;;;;;;31.50;12.30;;;;;;;10.83;53.58;99068.13;106079;1271;24376;-57
2022/03/30 11:35:42;;;;;;;;;;;;;;;10.92;52.87;99068.21;106069;1271;25320;-57
2022/03/30 11:38:24;;;;;;;27.60;12.20;;;;;;;10.96;52.62;99065.23;106165;1271;25482;-58
2022/03/30 11:41:07;;;;;;;31.30;11.20;;;;;;;11.01;52.69;99065.56;105979;1271;25297;-57
2022/03/30 11:46:38;;;;;;;31.60;13.20;;;;;;;11.14;52.39;99064.67;105994;1271;22689;-56
2022/03/30 11:49:10;;;;;;;32.10;13.50;;;;;;;11.20;51.96;99062.11;106002;1270;23243;-57
2022/03/30 11:51:44;;;;;;;32.30;13.40;;;;;;;11.18;51.48;99064.55;106035;1271;24271;-57
2022/03/30 11:54:21;;;;;;;33.30;13.70;;;;;;;11.15;51.56;99063.11;106070;1271;22554;-56
2022/03/30 11:56:55;;;;;;;29.30;13.00;;;;;;;11.12;51.06;99058.13;105901;1271;22546;-57
2022/03/30 11:59:28;;;;;;;31.50;13.10;;;;;;;11.10;51.19;99055.91;106054;1271;22548;-58
2022/03/30 12:02:02;;;;;;;32.70;12.40;;;;;;;11.09;50.93;99048.75;106184;1271;24313;-56
2022/03/30 12:04:37;;;;;;;38.20;14.60;;;;;;;11.07;51.10;99044.98;106161;1271;25323;-57